createdAt,value
2023-02-11T00:02:54.927Z,27.90
2023-02-11T00:07:56.906Z,22.80
2023-02-11T00:12:58.984Z,38.20
2023-02-11T00:18:00.653Z,32.50
2023-02-11T00:23:02.351Z,32.10
2023-02-11T00:28:04.437Z,28.30
2023-02-11T00:33:06.186Z,29.00
2023-02-11T00:38:07.960Z,31.20
2023-02-11T00:43:09.728Z,25.60
2023-02-11T00:48:11.434Z,35.80
2023-02-11T00:53:13.175Z,38.50
2023-02-11T00:58:14.860Z,20.30
2023-02-11T01:03:16.623Z,32.60
2023-02-11T01:08:19.433Z,31.60
2023-02-11T01:13:21.816Z,30.20
2023-02-11T01:18:24.413Z,23.80
2023-02-11T01:23:26.230Z,36.90
2023-02-11T01:28:29.786Z,30.30
2023-02-11T01:33:31.896Z,33.10
2023-02-11T01:38:35.605Z,29.50
2023-02-11T01:43:46.400Z,41.60
2023-02-11T01:48:55.408Z,27.50
2023-02-11T01:54:16.984Z,38.20
2023-02-11T01:59:29.915Z,28.30
2023-02-11T02:04:46.333Z,39.50
2023-02-11T02:10:04.080Z,26.70
2023-02-11T02:15:21.730Z,40.60
2023-02-11T02:20:57.193Z,34.80
2023-02-11T02:26:36.239Z,30.40
2023-02-11T02:32:15.600Z,35.50
2023-02-11T02:37:30.701Z,42.30
2023-02-11T02:42:33.685Z,28.10
2023-02-11T02:47:35.467Z,42.00
2023-02-11T02:53:23.420Z,37.60
2023-02-11T02:59:03.293Z,27.80
2023-02-11T03:04:32.826Z,24.30
2023-02-11T03:09:44.125Z,31.10
2023-02-11T03:14:49.612Z,26.60
2023-02-11T03:19:51.759Z,32.10
2023-02-11T03:24:56.313Z,26.30
2023-02-11T03:30:10.160Z,35.90
2023-02-11T03:35:24.259Z,26.70
2023-02-11T03:40:35.962Z,25.60
2023-02-11T03:45:39.867Z,27.10
2023-02-11T03:50:45.089Z,24.90
2023-02-11T03:55:50.228Z,25.40
2023-02-11T04:00:52.369Z,31.40
2023-02-11T04:05:54.265Z,27.50
2023-02-11T04:10:56.024Z,24.60
2023-02-11T04:15:57.707Z,25.00
2023-02-11T04:20:59.660Z,29.80
2023-02-11T04:26:01.438Z,27.80
2023-02-11T04:31:03.567Z,36.00
2023-02-11T04:36:06.313Z,19.30
2023-02-11T04:41:08.192Z,25.70
2023-02-11T04:46:10.215Z,18.80
2023-02-11T04:51:12.268Z,29.80
2023-02-11T04:56:14.268Z,32.40
2023-02-11T05:01:16.868Z,31.10
2023-02-11T05:06:18.702Z,33.70
2023-02-11T05:11:24.375Z,36.40
2023-02-11T05:16:26.101Z,35.20
2023-02-11T05:21:28.020Z,33.40
2023-02-11T05:26:29.665Z,28.50
2023-02-11T05:31:32.397Z,29.30
2023-02-11T05:36:34.491Z,35.00
2023-02-11T05:41:37.690Z,23.40
2023-02-11T05:46:39.609Z,51.90
2023-02-11T05:51:41.357Z,21.30
2023-02-11T05:56:44.905Z,37.50
2023-02-11T06:01:46.829Z,35.60
2023-02-11T06:06:48.813Z,34.00
2023-02-11T06:11:50.492Z,36.90
2023-02-11T06:16:52.261Z,51.60
2023-02-11T06:21:55.873Z,34.90
2023-02-11T06:26:57.676Z,34.40
2023-02-11T06:31:59.964Z,31.40
2023-02-11T06:37:02.545Z,41.30
2023-02-11T06:42:07.916Z,36.10
2023-02-11T06:47:10.485Z,52.20
2023-02-11T06:52:12.471Z,38.50
2023-02-11T06:57:14.247Z,43.00
2023-02-11T07:02:16.785Z,39.30
2023-02-11T07:07:20.056Z,29.60
2023-02-11T07:12:22.654Z,44.50
2023-02-11T07:17:24.725Z,34.40
2023-02-11T07:22:26.496Z,45.00
2023-02-11T07:27:28.313Z,44.40
2023-02-11T07:32:30.152Z,38.20
2023-02-11T07:37:34.906Z,50.80
2023-02-11T07:42:37.080Z,48.20
2023-02-11T07:47:39.367Z,37.40
2023-02-11T07:52:41.448Z,43.40
2023-02-11T07:57:43.436Z,44.20
2023-02-11T08:02:45.203Z,44.50
2023-02-11T08:07:46.972Z,34.80
2023-02-11T08:12:48.753Z,43.00
2023-02-11T08:17:50.423Z,40.10
2023-02-11T08:22:52.230Z,45.40
2023-02-11T08:27:53.971Z,35.20
2023-02-11T08:32:56.472Z,41.00
2023-02-11T08:37:59.060Z,49.00
2023-02-11T08:43:01.366Z,37.00
2023-02-11T08:48:03.325Z,42.20
2023-02-11T08:53:05.443Z,34.70
2023-02-11T08:58:07.953Z,31.80
2023-02-11T09:03:11.935Z,41.40
2023-02-11T09:08:14.516Z,38.40
2023-02-11T09:13:16.608Z,28.00
2023-02-11T09:18:18.485Z,26.90
2023-02-11T09:23:20.258Z,27.60
2023-02-11T09:28:23.091Z,34.10
2023-02-11T09:33:25.452Z,26.80
2023-02-11T09:38:27.215Z,37.20
2023-02-11T09:43:43.740Z,33.20
2023-02-11T09:48:50.263Z,20.10
2023-02-11T09:54:05.531Z,28.50
2023-02-11T09:59:16.134Z,27.70
2023-02-11T10:04:55.260Z,31.20
2023-02-11T10:10:11.057Z,30.20
2023-02-11T10:15:43.721Z,25.20
2023-02-11T10:20:52.821Z,18.80
2023-02-11T10:25:58.447Z,28.80
2023-02-11T10:31:14.660Z,22.90
2023-02-11T10:36:20.654Z,25.90
2023-02-11T10:41:33.412Z,24.20
2023-02-11T10:46:39.808Z,23.90
2023-02-11T10:51:41.869Z,18.30
2023-02-11T10:56:58.069Z,20.70
2023-02-11T11:02:05.579Z,17.70
2023-02-11T11:07:23.533Z,21.10
2023-02-11T11:12:53.463Z,15.90
2023-02-11T11:18:23.065Z,20.60
2023-02-11T11:23:27.689Z,24.10
2023-02-11T11:28:40.059Z,26.80
2023-02-11T11:33:44.187Z,19.40
2023-02-11T11:38:53.757Z,17.70
2023-02-11T11:44:31.876Z,17.60
2023-02-11T11:49:45.214Z,17.50
2023-02-11T11:54:58.250Z,20.40
2023-02-11T12:00:00.064Z,23.70
2023-02-11T12:05:22.185Z,14.50
2023-02-11T12:10:58.708Z,21.60
2023-02-11T12:16:41.358Z,12.50
2023-02-11T12:21:55.872Z,18.70
2023-02-11T12:27:09.946Z,12.70
2023-02-11T12:32:25.946Z,20.90
2023-02-11T12:38:18.882Z,18.20
2023-02-11T12:43:28.913Z,14.30
2023-02-11T12:49:00.572Z,17.00
2023-02-11T12:54:41.808Z,14.90
2023-02-11T13:00:18.172Z,16.70
2023-02-11T13:05:40.067Z,14.60
2023-02-11T13:10:49.042Z,15.10
2023-02-11T13:16:07.370Z,12.00
2023-02-11T13:21:15.350Z,17.40
2023-02-11T13:26:27.893Z,13.10
2023-02-11T13:31:31.574Z,11.10
2023-02-11T13:36:34.691Z,11.10
2023-02-11T13:41:40.937Z,8.10
2023-02-11T13:47:04.585Z,9.90
2023-02-11T13:52:34.488Z,9.90
2023-02-11T13:57:39.802Z,5.60
2023-02-11T14:03:00.787Z,10.90
2023-02-11T14:08:41.387Z,8.10
2023-02-11T14:13:53.212Z,7.00
2023-02-11T14:18:55.453Z,8.00
2023-02-11T14:24:11.229Z,6.00
2023-02-11T14:29:22.557Z,10.50
2023-02-11T14:35:01.528Z,8.80
2023-02-11T14:40:34.217Z,5.20
2023-02-11T14:45:37.427Z,10.30
2023-02-11T14:50:52.323Z,9.20
2023-02-11T14:55:55.505Z,8.60
2023-02-11T15:01:21.755Z,17.50
2023-02-11T15:06:35.965Z,8.40
2023-02-11T15:11:41.888Z,6.20
2023-02-11T15:16:46.434Z,6.30
2023-02-11T15:21:50.370Z,17.30
2023-02-11T15:27:15.713Z,11.80
2023-02-11T15:32:25.258Z,8.80
2023-02-11T15:37:31.856Z,17.30
2023-02-11T15:42:47.227Z,11.60
2023-02-11T15:48:11.547Z,11.00
2023-02-11T15:53:28.570Z,6.40
2023-02-11T15:58:37.420Z,9.70
2023-02-11T16:03:42.870Z,8.00
2023-02-11T16:08:59.758Z,12.80
2023-02-11T16:14:21.242Z,13.20
2023-02-11T16:19:27.103Z,5.00
2023-02-11T16:24:35.979Z,6.40
2023-02-11T16:29:37.936Z,10.50
2023-02-11T16:34:40.012Z,22.60
2023-02-11T16:39:42.086Z,24.30
2023-02-11T16:44:43.867Z,11.30
2023-02-11T16:49:46.166Z,18.20
2023-02-11T16:54:48.539Z,7.80
2023-02-11T16:59:51.963Z,12.70
2023-02-11T17:04:57.498Z,9.50
2023-02-11T17:09:59.932Z,5.70
2023-02-11T17:15:01.829Z,10.00
2023-02-11T17:20:04.920Z,8.60
2023-02-11T17:25:07.626Z,10.60
2023-02-11T17:30:12.868Z,12.00
2023-02-11T17:35:14.820Z,10.10
2023-02-11T17:40:17.211Z,9.10
2023-02-11T17:45:22.086Z,3.40
2023-02-11T17:50:24.064Z,9.10
2023-02-11T17:55:25.839Z,11.60
2023-02-11T18:00:27.992Z,6.40
2023-02-11T18:05:37.196Z,15.90
2023-02-11T18:10:41.831Z,6.50
2023-02-11T18:15:43.888Z,6.70
2023-02-11T18:20:59.471Z,6.60
2023-02-11T18:26:02.473Z,10.70
2023-02-11T18:31:06.394Z,5.70
2023-02-11T18:36:13.107Z,32.10
2023-02-11T18:41:15.277Z,12.20
2023-02-11T18:46:17.465Z,51.20
2023-02-11T18:51:19.541Z,32.80
2023-02-11T18:56:24.707Z,175.00
2023-02-11T19:01:29.098Z,113.20
2023-02-11T19:06:35.997Z,135.60
2023-02-11T19:11:53.691Z,12.70
2023-02-11T19:16:59.410Z,8.60
2023-02-11T19:22:06.142Z,4.20
2023-02-11T19:27:10.061Z,4.90
2023-02-11T19:32:11.950Z,3.60
2023-02-11T19:37:14.220Z,1.70
2023-02-11T19:42:16.009Z,23.90
2023-02-11T19:47:17.803Z,3.10
2023-02-11T19:52:20.061Z,1.90
2023-02-11T19:57:22.069Z,3.10
2023-02-11T20:02:24.269Z,2.50
2023-02-11T20:07:26.411Z,4.80
2023-02-11T20:12:28.633Z,3.50
2023-02-11T20:17:30.678Z,1.20
2023-02-11T20:22:33.888Z,3.80
2023-02-11T20:27:35.765Z,1.60
2023-02-11T20:32:38.290Z,2.00
2023-02-11T20:37:43.695Z,3.20
2023-02-11T20:42:46.105Z,3.20
2023-02-11T20:47:48.182Z,1.80
2023-02-11T20:52:50.700Z,4.10
2023-02-11T20:57:52.693Z,2.00
2023-02-11T21:02:54.913Z,4.10
2023-02-11T21:07:57.035Z,7.10
2023-02-11T21:13:00.031Z,4.30
2023-02-11T21:18:01.925Z,2.10
2023-02-11T21:23:04.297Z,1.90
2023-02-11T21:28:06.356Z,50.40
2023-02-11T21:33:08.176Z,33.20
2023-02-11T21:38:10.373Z,69.70
2023-02-11T21:43:12.218Z,16.50
2023-02-11T21:48:15.882Z,6.50
2023-02-11T21:53:17.714Z,6.90
2023-02-11T21:58:19.513Z,4.70
2023-02-11T22:03:21.265Z,6.00
2023-02-11T22:08:23.041Z,4.70
2023-02-11T22:13:24.919Z,5.40
2023-02-11T22:18:27.822Z,4.20
2023-02-11T22:23:31.138Z,4.10
2023-02-11T22:28:34.044Z,6.60
2023-02-11T22:33:36.007Z,4.90
2023-02-11T22:38:37.888Z,7.80
2023-02-11T22:43:42.797Z,4.60
2023-02-11T22:48:46.040Z,3.80
2023-02-11T22:54:04.097Z,11.20
2023-02-11T22:59:14.691Z,3.10
2023-02-11T23:04:18.706Z,2.80
2023-02-11T23:09:20.632Z,1.10
2023-02-11T23:14:22.461Z,1.10
2023-02-11T23:19:24.337Z,2.50
2023-02-11T23:24:26.142Z,0.70
2023-02-11T23:29:27.906Z,5.30
2023-02-11T23:34:29.673Z,2.00
2023-02-11T23:39:31.584Z,1.20
2023-02-11T23:44:33.422Z,0.80
2023-02-11T23:49:35.452Z,3.50
2023-02-11T23:54:37.284Z,3.50
2023-02-11T23:59:39.264Z,1.00
